KSWO/SWO METAR and TAF weather

Enter ICAO airport designator
Station Type Date Time Source
KSWO METAR 2021/03/03 01:53 UTC NOAA

KSWO 030153Z 17008KT 10SM CLR 08/M04 A3006 RMK AO2 SLP183 T00831044


Station Type Date Time Source
KSWO Decoded METAR 2021/03/03 01:53 UTC NOAA

STILLWATER REGIONAL AIRPORT, OK, United States (KSWO) 36-10N 97-05W 290M
Mar 02, 2021 - 08:53 PM EST / 2021.03.03 0153 UTC
Wind: from the S (170 degrees) at 9 MPH (8 KT):0
Visibility: 10 mile(s):0
Sky conditions: clear
Temperature: 46.9 F (8.3 C)
Dew Point: 24.1 F (-4.4 C)
Relative Humidity: 40%
Pressure (altimeter): 30.06 in. Hg (1017 hPa)
ob: KSWO 030153Z 17008KT 10SM CLR 08/M04 A3006 RMK AO2 SLP183 T00831044
cycle: 2

Station Type Date Time Source
KSWO TAF 2021/03/02 18:27 UTC NOAA

TAF KSWO 021724Z 0218/0318 20010KT P6SM SKC

Example: see airport list